createdAt,value
2023-03-26T00:57:11.275Z,1012.02
2023-03-26T01:27:12.796Z,1011.34
2023-03-26T02:24:31.257Z,1009.98
2023-03-26T02:53:18.612Z,1009.5
2023-03-26T03:22:09.031Z,1009
2023-03-26T03:51:08.049Z,1008.62
2023-03-26T04:20:08.327Z,1007.95
2023-03-26T04:49:15.472Z,1007.14
2023-03-26T05:17:52.450Z,1006.58
2023-03-26T05:46:17.436Z,1005.94
2023-03-26T06:15:33.516Z,1005.32
2023-03-26T06:44:28.983Z,1004.99
2023-03-26T07:17:39.991Z,1004.8
2023-03-26T08:14:59.598Z,1005.34
2023-03-26T08:43:49.584Z,1005.67
2023-03-26T09:11:50.629Z,1005.46
2023-03-26T09:40:54.384Z,1005.39
2023-03-26T10:37:58.305Z,1005.47
2023-03-26T11:06:14.407Z,1005.13
2023-03-26T11:34:40.096Z,1005.14
2023-03-26T12:03:33.022Z,1004.5
2023-03-26T12:32:08.879Z,1004.1
2023-03-26T13:00:44.274Z,1004.11
2023-03-26T13:29:17.536Z,1003.93
2023-03-26T13:57:55.270Z,1004.7
2023-03-26T14:26:35.442Z,1005.4
2023-03-26T14:55:29.578Z,1005.46
2023-03-26T15:23:53.300Z,1005.58
2023-03-26T15:52:29.354Z,1005.5
2023-03-26T16:21:30.845Z,1005.56
2023-03-26T17:18:13.433Z,1005.66
2023-03-26T17:46:41.551Z,1005.89
2023-03-26T18:15:26.461Z,1006.1
2023-03-26T18:44:16.844Z,1005.89
2023-03-26T19:12:44.246Z,1005.71
2023-03-26T19:41:30.013Z,1005.68
2023-03-26T20:09:57.155Z,1005.7
2023-03-26T20:38:47.843Z,1005.85
2023-03-26T21:07:24.563Z,1006.03
2023-03-26T21:36:15.173Z,1006.14
2023-03-26T22:04:58.327Z,1006.33
2023-03-26T22:33:29.637Z,1006.76
2023-03-26T23:02:23.499Z,1007.56
2023-03-26T23:31:24.644Z,1007.9
